Terminal Aerodrome Forecast
Issued by NWS Atlanta, GA

Home | Current Version | Previous Version | Text Only | Print | Product List | Glossary On
Versions: 1 2 3 4 5 6 7 8 9 10 11 12 13 14 15 16 17 18 19 20 21 22 23 24 25 26 27 28 29
066
FTAK31 PAJN 271720
TAFAHN
TAF
PAHN 271720Z 2718/2818 12008KT 4SM -RA BR OVC018
     FM272100 12012KT 3SM RA BR BKN007 OVC015
     FM280400 10010KT 5SM -RA BR BKN015 OVC025
      AMD LTD TO CLD VIS AND WIND=

USA.gov is the U.S. government's official web portal to all federal, state and local government web resources and services.